createdAt,value
2022-10-14T00:01:07.825Z,7.60
2022-10-14T00:03:37.360Z,7.93
2022-10-14T00:06:05.392Z,8.30
2022-10-14T00:08:32.962Z,8.27
2022-10-14T00:11:04.840Z,9.40
2022-10-14T00:13:32.738Z,8.47
2022-10-14T00:16:00.299Z,7.70
2022-10-14T00:18:28.834Z,8.17
2022-10-14T00:20:57.824Z,7.70
2022-10-14T00:23:25.637Z,8.13
2022-10-14T00:25:53.177Z,8.80
2022-10-14T00:28:22.627Z,9.00
2022-10-14T00:30:56.898Z,9.03
2022-10-14T00:33:24.821Z,8.67
2022-10-14T00:35:58.627Z,8.83
2022-10-14T00:38:31.630Z,7.90
2022-10-14T00:40:59.213Z,8.03
2022-10-14T00:43:27.617Z,8.10
2022-10-14T00:45:55.433Z,8.10
2022-10-14T00:48:24.429Z,7.90
2022-10-14T00:50:56.192Z,8.60
2022-10-14T00:53:25.297Z,8.77
2022-10-14T00:55:55.972Z,8.47
2022-10-14T00:58:24.413Z,8.30
2022-10-14T01:00:52.309Z,8.33
2022-10-14T01:03:22.302Z,8.13
2022-10-14T01:05:53.171Z,8.77
2022-10-14T01:08:25.050Z,8.00
2022-10-14T01:10:56.865Z,8.97
2022-10-14T01:13:26.895Z,8.80
2022-10-14T01:16:05.513Z,8.90
2022-10-14T01:18:38.858Z,8.27
2022-10-14T01:21:10.400Z,8.77
2022-10-14T01:24:06.535Z,8.60
2022-10-14T01:26:51.709Z,8.60
2022-10-14T01:29:24.825Z,8.90
2022-10-14T01:31:58.217Z,7.70
2022-10-14T01:34:28.624Z,8.53
2022-10-14T01:36:59.071Z,8.97
2022-10-14T01:39:28.597Z,9.20
2022-10-14T01:41:58.916Z,9.60
2022-10-14T01:44:27.960Z,9.67
2022-10-14T01:46:57.127Z,9.90
2022-10-14T01:49:27.817Z,9.10
2022-10-14T01:51:57.265Z,8.97
2022-10-14T01:54:27.292Z,9.63
2022-10-14T01:56:55.352Z,9.43
2022-10-14T01:59:23.528Z,9.97
2022-10-14T02:01:51.299Z,8.63
2022-10-14T02:04:20.862Z,9.43
2022-10-14T02:06:50.690Z,9.10
2022-10-14T02:09:23.749Z,9.37
2022-10-14T02:11:56.227Z,9.90
2022-10-14T02:14:33.493Z,9.97
2022-10-14T02:17:02.536Z,10.53
2022-10-14T02:19:36.531Z,10.47
2022-10-14T02:22:06.655Z,9.73
2022-10-14T02:24:36.889Z,10.50
2022-10-14T02:27:07.298Z,9.93
2022-10-14T02:29:36.182Z,9.57
2022-10-14T02:32:06.350Z,9.57
2022-10-14T02:34:36.996Z,9.37
2022-10-14T02:37:09.303Z,9.97
2022-10-14T02:39:38.277Z,9.47
2022-10-14T02:42:06.377Z,9.40
2022-10-14T02:44:35.136Z,9.03
2022-10-14T02:47:02.989Z,10.33
2022-10-14T02:49:31.316Z,9.50
2022-10-14T02:52:00.339Z,8.47
2022-10-14T02:54:28.029Z,9.30
2022-10-14T02:56:55.757Z,8.90
2022-10-14T02:59:24.989Z,9.13
2022-10-14T03:01:52.583Z,9.20
2022-10-14T03:04:22.179Z,9.03
2022-10-14T03:06:52.725Z,8.73
2022-10-14T03:09:21.864Z,9.40
2022-10-14T03:11:50.454Z,8.57
2022-10-14T03:14:20.497Z,8.60
2022-10-14T03:16:48.928Z,8.37
2022-10-14T03:19:21.946Z,8.50
2022-10-14T03:21:53.038Z,8.50
2022-10-14T03:24:23.063Z,8.33
2022-10-14T03:27:07.904Z,8.47
2022-10-14T03:29:36.761Z,8.33
2022-10-14T03:32:14.261Z,8.47
2022-10-14T03:35:05.149Z,8.43
2022-10-14T03:37:33.098Z,9.03
2022-10-14T03:40:02.529Z,8.43
2022-10-14T03:42:32.139Z,8.43
2022-10-14T03:44:59.709Z,8.40
2022-10-14T03:47:29.292Z,8.27
2022-10-14T03:49:57.215Z,8.77
2022-10-14T03:52:46.735Z,7.80
2022-10-14T03:55:28.340Z,7.07
2022-10-14T03:57:56.444Z,7.37
2022-10-14T04:00:24.193Z,7.30
2022-10-14T04:03:04.617Z,7.33
2022-10-14T04:05:39.204Z,6.83
2022-10-14T04:08:17.510Z,7.47
2022-10-14T04:10:54.770Z,7.50
2022-10-14T04:13:23.665Z,7.70
2022-10-14T04:15:51.781Z,6.80
2022-10-14T04:18:24.211Z,7.20
2022-10-14T04:20:54.956Z,6.90
2022-10-14T04:23:24.498Z,7.20
2022-10-14T04:25:58.039Z,6.87
2022-10-14T04:28:26.116Z,6.90
2022-10-14T04:31:00.478Z,6.47
2022-10-14T04:33:35.066Z,6.60
2022-10-14T04:36:10.700Z,7.07
2022-10-14T04:38:41.370Z,6.90
2022-10-14T04:41:12.227Z,7.00
2022-10-14T04:43:46.564Z,6.73
2022-10-14T04:46:27.800Z,6.73
2022-10-14T04:48:55.671Z,6.50
2022-10-14T04:51:27.269Z,7.17
2022-10-14T04:54:04.501Z,6.80
2022-10-14T04:56:43.639Z,6.97
2022-10-14T04:59:13.598Z,6.60
2022-10-14T05:02:04.473Z,6.83
2022-10-14T05:04:39.391Z,6.60
2022-10-14T05:07:08.405Z,7.10
2022-10-14T05:09:36.228Z,6.90
2022-10-14T05:12:07.917Z,6.90
2022-10-14T05:14:43.618Z,6.50
2022-10-14T05:17:20.692Z,6.43
2022-10-14T05:19:48.451Z,6.80
2022-10-14T05:22:17.420Z,6.83
2022-10-14T05:24:46.795Z,6.63
2022-10-14T05:27:16.127Z,6.93
2022-10-14T05:29:44.350Z,7.10
2022-10-14T05:32:12.069Z,6.60
2022-10-14T05:34:44.573Z,6.60
2022-10-14T05:37:18.419Z,6.87
2022-10-14T05:39:50.476Z,5.80
2022-10-14T05:42:22.401Z,7.27
2022-10-14T05:44:52.916Z,5.43
2022-10-14T05:47:20.765Z,5.20
2022-10-14T05:49:52.229Z,5.50
2022-10-14T05:52:20.143Z,6.00
2022-10-14T05:54:48.905Z,5.43
2022-10-14T05:57:20.133Z,6.30
2022-10-14T05:59:49.153Z,6.40
2022-10-14T06:02:16.881Z,6.87
2022-10-14T06:04:44.558Z,8.50
2022-10-14T06:07:12.226Z,12.57
2022-10-14T06:09:40.015Z,12.20
2022-10-14T06:12:07.844Z,10.97
2022-10-14T06:14:35.429Z,10.73
2022-10-14T06:17:04.773Z,10.20
2022-10-14T06:19:33.378Z,10.27
2022-10-14T06:22:00.921Z,10.67
2022-10-14T06:24:28.480Z,10.47
2022-10-14T06:26:56.037Z,9.23
2022-10-14T06:29:26.230Z,9.13
2022-10-14T06:31:53.789Z,8.37
2022-10-14T06:34:23.774Z,7.70
2022-10-14T06:36:51.342Z,7.40
2022-10-14T06:39:18.907Z,7.57
2022-10-14T06:41:46.456Z,7.23
2022-10-14T06:44:19.918Z,6.47
2022-10-14T06:46:47.720Z,6.60
2022-10-14T06:49:15.325Z,7.03
2022-10-14T06:51:44.238Z,6.73
2022-10-14T06:54:11.821Z,6.10
2022-10-14T06:56:39.369Z,6.27
2022-10-14T06:59:06.895Z,6.07
2022-10-14T07:01:34.575Z,7.50
2022-10-14T07:04:02.980Z,8.27
2022-10-14T07:06:30.592Z,8.10
2022-10-14T07:08:59.558Z,9.57
2022-10-14T07:11:27.130Z,8.73
2022-10-14T07:13:56.049Z,8.67
2022-10-14T07:16:23.785Z,8.27
2022-10-14T07:18:51.328Z,10.07
2022-10-14T07:21:18.888Z,10.63
2022-10-14T07:23:46.569Z,12.97
2022-10-14T07:26:15.545Z,14.10
2022-10-14T07:28:43.186Z,15.13
2022-10-14T07:31:11.720Z,15.80
2022-10-14T07:33:40.022Z,15.40
2022-10-14T07:36:09.769Z,14.33
2022-10-14T07:38:37.488Z,14.60
2022-10-14T07:41:05.761Z,14.10
2022-10-14T07:43:34.948Z,10.77
2022-10-14T07:46:03.938Z,10.50
2022-10-14T07:48:44.935Z,9.10
2022-10-14T07:51:20.378Z,9.37
2022-10-14T07:53:48.516Z,8.90
2022-10-14T07:56:16.064Z,8.97
2022-10-14T07:58:46.308Z,9.00
2022-10-14T08:01:15.263Z,9.27
2022-10-14T08:03:44.223Z,8.57
2022-10-14T08:06:12.504Z,8.87
2022-10-14T08:08:40.676Z,10.53
2022-10-14T08:11:10.500Z,10.20
2022-10-14T08:13:41.868Z,10.43
2022-10-14T08:16:15.577Z,16.77
2022-10-14T08:18:43.174Z,9.23
2022-10-14T08:21:10.793Z,8.23
2022-10-14T08:23:38.405Z,8.57
2022-10-14T08:26:06.118Z,8.93
2022-10-14T08:28:33.743Z,8.97
2022-10-14T08:31:01.300Z,9.17
2022-10-14T08:33:30.248Z,9.83
2022-10-14T08:35:57.805Z,9.00
2022-10-14T08:38:26.448Z,10.10
2022-10-14T08:40:59.073Z,9.23
2022-10-14T08:43:31.022Z,10.50
2022-10-14T08:46:05.566Z,10.20
2022-10-14T08:48:35.232Z,8.80
2022-10-14T08:51:05.963Z,7.30
2022-10-14T08:53:35.938Z,6.47
2022-10-14T08:56:03.971Z,6.47
2022-10-14T08:58:32.840Z,7.53
2022-10-14T09:01:02.701Z,7.10
2022-10-14T09:03:33.900Z,6.97
2022-10-14T09:06:04.632Z,6.00
2022-10-14T09:08:34.125Z,6.80
2022-10-14T09:11:01.680Z,6.57
2022-10-14T09:13:32.547Z,6.40
2022-10-14T09:16:03.204Z,6.27
2022-10-14T09:18:33.661Z,5.80
2022-10-14T09:21:02.066Z,5.90
2022-10-14T09:23:31.029Z,5.43
2022-10-14T09:25:59.407Z,5.83
2022-10-14T09:28:34.475Z,6.23
2022-10-14T09:31:02.098Z,6.70
2022-10-14T09:33:29.724Z,6.20
2022-10-14T09:38:27.241Z,6.07
2022-10-14T09:40:59.310Z,5.50
2022-10-14T09:43:27.179Z,5.00
2022-10-14T09:45:57.214Z,5.60
2022-10-14T09:48:31.600Z,4.67
2022-10-14T09:51:00.146Z,4.40
2022-10-14T09:53:29.624Z,4.43
2022-10-14T09:55:59.548Z,4.67
2022-10-14T09:58:34.375Z,4.60
2022-10-14T10:01:04.339Z,5.20
2022-10-14T10:03:33.669Z,4.30
2022-10-14T10:06:04.419Z,4.63
2022-10-14T10:08:32.248Z,4.80
2022-10-14T10:11:06.813Z,4.27
2022-10-14T10:13:40.407Z,4.30
2022-10-14T10:16:09.169Z,4.30
2022-10-14T10:18:36.717Z,4.87
2022-10-14T10:21:06.984Z,4.30
2022-10-14T10:23:35.917Z,4.30
2022-10-14T10:26:18.477Z,4.20
2022-10-14T10:28:46.642Z,3.70
2022-10-14T10:31:21.106Z,3.87
2022-10-14T10:33:54.006Z,4.47
2022-10-14T10:36:24.021Z,3.53
2022-10-14T10:38:58.192Z,4.10
2022-10-14T10:41:37.676Z,3.80
2022-10-14T10:44:32.224Z,4.20
2022-10-14T10:47:08.602Z,3.90
2022-10-14T10:49:50.087Z,3.97
2022-10-14T10:52:22.644Z,4.23
2022-10-14T10:54:54.236Z,4.30
2022-10-14T10:57:30.985Z,4.67
2022-10-14T11:00:01.759Z,4.23
2022-10-14T11:02:47.940Z,4.17
2022-10-14T11:05:18.276Z,4.40
2022-10-14T11:08:08.990Z,4.03
2022-10-14T11:11:00.912Z,3.77
2022-10-14T11:13:39.696Z,2.90
2022-10-14T11:16:10.377Z,3.10
2022-10-14T11:18:45.250Z,3.47
2022-10-14T11:21:21.874Z,3.67
2022-10-14T11:23:54.480Z,3.43
2022-10-14T11:26:28.886Z,3.33
2022-10-14T11:29:01.832Z,3.20
2022-10-14T11:31:33.276Z,3.70
2022-10-14T11:34:08.034Z,4.77
2022-10-14T11:36:40.837Z,3.97
2022-10-14T11:39:22.420Z,4.47
2022-10-14T11:41:55.158Z,6.00
2022-10-14T11:44:26.795Z,5.50
2022-10-14T11:46:56.407Z,4.57
2022-10-14T11:49:26.349Z,4.17
2022-10-14T11:51:56.866Z,4.23
2022-10-14T11:54:28.496Z,3.90
2022-10-14T11:56:58.430Z,4.20
2022-10-14T11:59:36.588Z,4.40
2022-10-14T12:02:12.040Z,5.27
2022-10-14T12:04:41.240Z,6.97
2022-10-14T12:07:12.384Z,6.63
2022-10-14T12:09:43.300Z,5.93
2022-10-14T12:12:12.767Z,5.87
2022-10-14T12:14:43.976Z,5.60
2022-10-14T12:17:19.005Z,5.10
2022-10-14T12:19:46.876Z,5.43
2022-10-14T12:22:17.814Z,5.07
2022-10-14T12:24:48.291Z,5.67
2022-10-14T12:27:16.531Z,5.00
2022-10-14T12:29:47.000Z,4.90
2022-10-14T12:32:24.190Z,4.83
2022-10-14T12:34:53.669Z,5.40
2022-10-14T12:37:51.559Z,4.90
2022-10-14T12:40:40.282Z,4.70
2022-10-14T12:43:19.934Z,4.67
2022-10-14T12:45:54.522Z,4.70
2022-10-14T12:48:23.428Z,5.40
2022-10-14T12:50:53.156Z,4.93
2022-10-14T12:53:25.127Z,5.63
2022-10-14T12:55:54.032Z,4.73
2022-10-14T12:58:27.433Z,5.00
2022-10-14T13:00:57.573Z,5.23
2022-10-14T13:03:27.367Z,4.87
2022-10-14T13:06:15.561Z,4.53
2022-10-14T13:08:43.125Z,4.67
2022-10-14T13:11:11.688Z,4.30
2022-10-14T13:13:51.501Z,3.90
2022-10-14T13:16:42.830Z,3.57
2022-10-14T13:19:32.377Z,4.00
2022-10-14T13:22:00.087Z,3.80
2022-10-14T13:24:29.171Z,4.13
2022-10-14T13:27:06.619Z,3.80
2022-10-14T13:29:39.813Z,4.00
2022-10-14T13:32:12.585Z,3.80
2022-10-14T13:34:48.125Z,3.80
2022-10-14T13:37:32.453Z,3.53
2022-10-14T13:40:06.536Z,4.27
2022-10-14T13:42:35.920Z,4.07
2022-10-14T13:45:06.201Z,4.17
2022-10-14T13:47:35.073Z,4.23
2022-10-14T13:50:05.037Z,4.10
2022-10-14T13:52:33.984Z,4.00
2022-10-14T13:55:14.265Z,4.03
2022-10-14T13:58:11.535Z,4.20
2022-10-14T14:00:42.741Z,4.37
2022-10-14T14:03:17.738Z,3.93
2022-10-14T14:05:46.770Z,3.60
2022-10-14T14:11:22.052Z,3.70
2022-10-14T14:13:59.022Z,3.73
2022-10-14T14:16:30.644Z,3.87
2022-10-14T14:19:14.105Z,3.87
2022-10-14T14:21:43.101Z,3.80
2022-10-14T14:24:17.717Z,3.43
2022-10-14T14:26:53.439Z,3.53
2022-10-14T14:29:24.941Z,3.53
2022-10-14T14:32:08.594Z,3.93
2022-10-14T14:34:37.898Z,3.73
2022-10-14T14:39:58.797Z,4.60
2022-10-14T14:42:26.760Z,4.07
2022-10-14T14:44:56.404Z,3.67
2022-10-14T14:47:24.471Z,3.83
2022-10-14T14:50:01.671Z,3.63
2022-10-14T14:52:45.830Z,3.67
2022-10-14T14:55:46.754Z,3.87
2022-10-14T14:58:28.792Z,3.33
2022-10-14T15:00:56.846Z,3.17
2022-10-14T15:03:25.927Z,3.40
2022-10-14T15:05:57.052Z,3.00
2022-10-14T15:08:28.643Z,3.20
2022-10-14T15:10:57.563Z,2.70
2022-10-14T15:13:26.586Z,3.10
2022-10-14T15:15:54.332Z,2.70
2022-10-14T15:18:24.367Z,2.43
2022-10-14T15:20:52.284Z,2.30
2022-10-14T15:23:50.089Z,2.53
2022-10-14T15:26:23.792Z,2.10
2022-10-14T15:29:04.332Z,2.13
2022-10-14T15:31:32.027Z,2.20
2022-10-14T15:33:59.599Z,2.20
2022-10-14T15:36:27.266Z,2.00
2022-10-14T15:38:56.141Z,2.40
2022-10-14T15:41:26.965Z,2.10
2022-10-14T15:43:54.506Z,1.90
2022-10-14T15:46:40.560Z,1.93
2022-10-14T15:49:14.865Z,2.13
2022-10-14T15:51:42.441Z,2.20
2022-10-14T15:54:10.800Z,2.20
2022-10-14T15:56:40.377Z,2.37
2022-10-14T15:59:07.924Z,2.20
2022-10-14T16:01:36.845Z,2.13
2022-10-14T16:04:04.601Z,2.10
2022-10-14T16:06:32.532Z,2.20
2022-10-14T16:09:00.145Z,2.07
2022-10-14T16:11:28.950Z,2.43
2022-10-14T16:13:57.979Z,1.83
2022-10-14T16:16:28.105Z,1.90
2022-10-14T16:18:55.649Z,2.00
2022-10-14T16:21:23.285Z,2.10
2022-10-14T16:23:52.643Z,2.37
2022-10-14T16:26:20.486Z,2.10
2022-10-14T16:28:48.300Z,2.43
2022-10-14T16:31:19.214Z,2.40
2022-10-14T16:33:47.084Z,2.17
2022-10-14T16:36:15.456Z,2.67
2022-10-14T16:38:43.014Z,2.40
2022-10-14T16:41:11.457Z,2.00
2022-10-14T16:43:39.236Z,2.20
2022-10-14T16:46:10.379Z,2.20
2022-10-14T16:48:42.216Z,2.17
2022-10-14T16:51:09.936Z,2.00
2022-10-14T16:53:44.937Z,1.90
2022-10-14T16:56:31.541Z,2.23
2022-10-14T16:58:59.957Z,2.20
2022-10-14T17:01:27.880Z,2.33
2022-10-14T17:03:57.413Z,2.63
2022-10-14T17:06:25.027Z,2.80
2022-10-14T17:08:52.924Z,3.23
2022-10-14T17:11:20.902Z,2.77
2022-10-14T17:13:51.483Z,3.27
2022-10-14T17:16:19.283Z,2.90
2022-10-14T17:21:20.797Z,2.80
2022-10-14T17:23:49.261Z,2.90
2022-10-14T17:26:18.262Z,2.90
2022-10-14T17:28:46.875Z,3.13
2022-10-14T17:31:16.117Z,3.10
2022-10-14T17:33:44.382Z,3.63
2022-10-14T17:36:17.697Z,3.57
2022-10-14T17:38:46.878Z,3.50
2022-10-14T17:41:15.037Z,3.70
2022-10-14T17:43:42.565Z,4.13
2022-10-14T17:46:11.470Z,4.17
2022-10-14T17:48:42.153Z,4.40
2022-10-14T17:51:10.537Z,4.13
2022-10-14T17:53:38.321Z,4.10
2022-10-14T17:56:08.311Z,4.23
2022-10-14T17:58:35.993Z,3.60
2022-10-14T18:01:04.420Z,4.10
2022-10-14T18:03:33.319Z,4.37
2022-10-14T18:06:08.650Z,3.97
2022-10-14T18:08:36.392Z,4.03
2022-10-14T18:11:08.526Z,4.43
2022-10-14T18:16:14.263Z,5.63
2022-10-14T18:18:42.590Z,6.30
2022-10-14T18:21:10.777Z,7.03
2022-10-14T18:23:39.574Z,6.50
2022-10-14T18:26:10.917Z,5.60
2022-10-14T18:28:43.075Z,4.90
2022-10-14T18:31:11.351Z,4.97
2022-10-14T18:33:39.589Z,5.00
2022-10-14T18:36:08.088Z,5.00
2022-10-14T18:38:35.944Z,4.60
2022-10-14T18:41:04.414Z,5.27
2022-10-14T18:43:32.474Z,4.97
2022-10-14T18:46:05.701Z,4.77
2022-10-14T18:48:33.556Z,3.90
2022-10-14T18:51:01.453Z,3.90
2022-10-14T18:53:31.057Z,4.13
2022-10-14T18:56:00.926Z,3.70
2022-10-14T18:58:29.320Z,3.30
2022-10-14T19:00:57.067Z,2.80
2022-10-14T19:03:26.017Z,2.50
2022-10-14T19:05:53.572Z,2.50
2022-10-14T19:08:22.786Z,2.20
2022-10-14T19:10:51.011Z,2.90
2022-10-14T19:13:18.648Z,2.03
2022-10-14T19:15:53.736Z,2.00
2022-10-14T19:18:21.386Z,2.07
2022-10-14T19:20:56.270Z,1.90
2022-10-14T19:23:24.723Z,1.83
2022-10-14T19:25:52.282Z,2.00
2022-10-14T19:28:19.829Z,1.93
2022-10-14T19:30:47.373Z,1.87
2022-10-14T19:33:14.921Z,1.90
2022-10-14T19:35:42.467Z,1.80
2022-10-14T19:38:11.611Z,2.40
2022-10-14T19:40:39.179Z,2.10
2022-10-14T19:43:06.712Z,1.93
2022-10-14T19:45:34.273Z,2.40
2022-10-14T19:48:01.817Z,2.50
2022-10-14T19:50:29.645Z,2.27
2022-10-14T19:52:57.381Z,1.80
2022-10-14T19:55:26.308Z,1.90
2022-10-14T19:57:56.057Z,2.07
2022-10-14T20:00:23.640Z,2.10
2022-10-14T20:02:51.249Z,2.20
2022-10-14T20:05:18.812Z,2.00
2022-10-14T20:07:46.376Z,1.90
2022-10-14T20:10:14.521Z,1.90
2022-10-14T20:12:43.484Z,2.40
2022-10-14T20:15:11.188Z,2.00
2022-10-14T20:17:38.779Z,1.77
2022-10-14T20:20:06.861Z,2.13
2022-10-14T20:22:34.428Z,1.70
2022-10-14T20:25:03.580Z,1.90
2022-10-14T20:27:31.088Z,1.60
2022-10-14T20:30:00.011Z,1.63
2022-10-14T20:32:28.090Z,1.80
2022-10-14T20:34:55.624Z,1.73
2022-10-14T20:37:27.203Z,1.70
2022-10-14T20:39:55.977Z,1.77
2022-10-14T20:42:23.519Z,1.90
2022-10-14T20:44:51.110Z,1.90
2022-10-14T20:47:20.194Z,1.70
2022-10-14T20:49:47.934Z,1.90
2022-10-14T20:52:15.468Z,1.73
2022-10-14T20:54:43.024Z,1.63
2022-10-14T20:57:10.622Z,1.73
2022-10-14T20:59:41.326Z,1.70
2022-10-14T21:02:15.058Z,1.70
2022-10-14T21:04:44.233Z,1.60
2022-10-14T21:07:11.798Z,1.67
2022-10-14T21:09:39.388Z,1.53
2022-10-14T21:12:07.234Z,1.80
2022-10-14T21:14:34.782Z,1.70
2022-10-14T21:17:02.339Z,1.70
2022-10-14T21:19:29.927Z,1.50
2022-10-14T21:21:58.859Z,1.80
2022-10-14T21:24:26.404Z,1.90
2022-10-14T21:26:54.465Z,1.70
2022-10-14T21:29:22.551Z,1.97
2022-10-14T21:31:50.492Z,1.80
2022-10-14T21:34:18.036Z,1.70
2022-10-14T21:36:45.800Z,2.00
2022-10-14T21:39:15.538Z,1.70
2022-10-14T21:41:43.544Z,1.93
2022-10-14T21:44:12.071Z,1.80
2022-10-14T21:46:39.660Z,1.90
2022-10-14T21:49:07.228Z,2.23
2022-10-14T21:51:34.777Z,2.40
2022-10-14T21:54:02.389Z,2.67
2022-10-14T21:56:31.362Z,2.40
2022-10-14T21:58:59.319Z,2.50
2022-10-14T22:01:28.121Z,2.20
2022-10-14T22:03:56.609Z,2.60
2022-10-14T22:06:24.248Z,2.27
2022-10-14T22:08:52.888Z,2.03
2022-10-14T22:11:21.180Z,1.60
2022-10-14T22:13:50.388Z,1.53
2022-10-14T22:16:18.552Z,1.70
2022-10-14T22:18:46.661Z,1.63
2022-10-14T22:21:14.880Z,1.87
2022-10-14T22:23:42.479Z,1.60
2022-10-14T22:26:11.796Z,1.63
2022-10-14T22:28:39.484Z,1.70
2022-10-14T22:31:09.540Z,1.60
2022-10-14T22:33:38.199Z,1.70
2022-10-14T22:36:06.786Z,1.67
2022-10-14T22:38:34.921Z,1.67
2022-10-14T22:41:02.664Z,1.60
2022-10-14T22:43:30.249Z,1.50
2022-10-14T22:46:01.541Z,1.50
2022-10-14T22:48:31.006Z,1.60
2022-10-14T22:51:02.331Z,1.50
2022-10-14T22:53:30.126Z,1.40
2022-10-14T22:55:57.946Z,1.50
2022-10-14T22:58:25.834Z,1.30
2022-10-14T23:00:53.354Z,1.10
2022-10-14T23:03:21.302Z,1.33
2022-10-14T23:05:50.649Z,1.10
2022-10-14T23:08:18.226Z,1.40
2022-10-14T23:10:45.793Z,1.03
2022-10-14T23:13:13.355Z,1.40
2022-10-14T23:15:40.918Z,1.20
2022-10-14T23:18:08.470Z,1.17
2022-10-14T23:20:36.284Z,1.30
2022-10-14T23:23:05.199Z,1.20
2022-10-14T23:25:32.750Z,1.10
2022-10-14T23:28:00.276Z,1.20
2022-10-14T23:30:28.017Z,1.23
2022-10-14T23:32:55.636Z,1.03
2022-10-14T23:35:23.204Z,1.40
2022-10-14T23:37:50.732Z,1.20
2022-10-14T23:40:19.995Z,1.30
2022-10-14T23:42:47.585Z,1.27
2022-10-14T23:45:15.149Z,1.17
2022-10-14T23:47:42.690Z,1.10
2022-10-14T23:50:10.422Z,1.50
2022-10-14T23:52:37.995Z,1.00
2022-10-14T23:55:05.868Z,1.10
2022-10-14T23:57:34.793Z,1.37
